createdAt,value
2022-10-24T00:00:54.675Z,58.40
2022-10-24T00:03:21.699Z,58.40
2022-10-24T00:05:49.084Z,58.50
2022-10-24T00:08:17.610Z,58.40
2022-10-24T00:10:46.324Z,58.40
2022-10-24T00:13:14.611Z,58.40
2022-10-24T00:15:46.071Z,58.40
2022-10-24T00:18:13.471Z,58.20
2022-10-24T00:20:41.237Z,58.20
2022-10-24T00:23:09.268Z,58.00
2022-10-24T00:25:36.618Z,57.80
2022-10-24T00:28:03.835Z,57.70
2022-10-24T00:30:30.851Z,57.60
2022-10-24T00:32:57.894Z,57.70
2022-10-24T00:35:24.946Z,59.00
2022-10-24T00:37:51.923Z,58.90
2022-10-24T00:40:20.291Z,59.80
2022-10-24T00:42:48.522Z,61.60
2022-10-24T00:45:48.130Z,62.40
2022-10-24T00:48:23.515Z,63.60
2022-10-24T00:50:55.144Z,64.10
2022-10-24T00:53:23.955Z,64.40
2022-10-24T00:55:54.430Z,64.60
2022-10-24T00:58:22.785Z,64.90
2022-10-24T01:00:49.926Z,65.00
2022-10-24T01:03:17.311Z,65.40
2022-10-24T01:06:07.997Z,66.30
2022-10-24T01:08:43.837Z,67.40
2022-10-24T01:11:25.829Z,67.30
2022-10-24T01:14:02.099Z,67.80
2022-10-24T01:16:42.832Z,67.90
2022-10-24T01:19:38.889Z,67.90
2022-10-24T01:22:24.492Z,69.00
2022-10-24T01:25:13.202Z,69.10
2022-10-24T01:28:01.982Z,68.80
2022-10-24T01:30:33.929Z,69.30
2022-10-24T01:33:20.731Z,69.10
2022-10-24T01:35:56.709Z,69.20
2022-10-24T01:38:31.064Z,69.80
2022-10-24T01:41:08.387Z,70.60
2022-10-24T01:43:43.038Z,70.80
2022-10-24T01:46:18.168Z,71.00
2022-10-24T01:48:57.777Z,71.40
2022-10-24T01:51:29.130Z,71.50
2022-10-24T01:53:57.769Z,71.60
2022-10-24T01:56:26.441Z,71.30
2022-10-24T01:58:53.541Z,71.40
2022-10-24T02:01:24.503Z,71.20
2022-10-24T02:03:57.766Z,71.70
2022-10-24T02:06:30.440Z,72.20
2022-10-24T02:09:00.743Z,73.00
2022-10-24T02:11:27.758Z,73.00
2022-10-24T02:14:02.042Z,74.90
2022-10-24T02:16:30.041Z,75.90
2022-10-24T02:18:58.717Z,76.40
2022-10-24T02:21:52.082Z,76.60
2022-10-24T02:24:24.211Z,76.10
2022-10-24T02:27:09.990Z,75.60
2022-10-24T02:29:44.178Z,74.90
2022-10-24T02:32:16.203Z,74.10
2022-10-24T02:34:44.816Z,73.90
2022-10-24T02:37:13.113Z,73.60
2022-10-24T02:39:42.779Z,73.20
2022-10-24T02:42:12.711Z,72.80
2022-10-24T02:44:41.715Z,72.50
2022-10-24T02:47:12.868Z,72.20
2022-10-24T02:49:40.529Z,71.90
2022-10-24T02:52:08.379Z,71.70
2022-10-24T02:54:35.499Z,71.90
2022-10-24T02:57:03.859Z,71.50
2022-10-24T02:59:31.099Z,71.00
2022-10-24T03:01:58.387Z,70.70
2022-10-24T03:04:25.368Z,70.40
2022-10-24T03:06:53.473Z,70.50
2022-10-24T03:09:20.459Z,69.90
2022-10-24T03:11:47.813Z,69.50
2022-10-24T03:14:14.812Z,69.50
2022-10-24T03:16:41.857Z,69.20
2022-10-24T03:19:11.600Z,68.80
2022-10-24T03:21:38.639Z,68.80
2022-10-24T03:24:05.868Z,67.10
2022-10-24T03:26:32.917Z,65.80
2022-10-24T03:28:59.954Z,66.40
2022-10-24T03:31:28.238Z,67.00
2022-10-24T03:33:55.189Z,67.90
2022-10-24T03:36:22.201Z,68.70
2022-10-24T03:38:49.298Z,69.40
2022-10-24T03:41:16.364Z,70.20
2022-10-24T03:43:43.284Z,70.70
2022-10-24T03:46:10.389Z,71.00
2022-10-24T03:48:37.383Z,71.30
2022-10-24T03:51:04.528Z,71.50
2022-10-24T03:53:31.503Z,71.80
2022-10-24T03:55:58.583Z,72.00
2022-10-24T03:58:25.635Z,72.20
2022-10-24T04:00:52.806Z,72.40
2022-10-24T04:03:19.951Z,72.90
2022-10-24T04:05:47.259Z,73.50
2022-10-24T04:08:14.265Z,73.80
2022-10-24T04:10:41.164Z,74.20
2022-10-24T04:13:08.233Z,74.80
2022-10-24T04:15:35.251Z,75.40
2022-10-24T04:18:02.481Z,75.70
2022-10-24T04:20:29.544Z,76.00
2022-10-24T04:22:57.183Z,76.20
2022-10-24T04:25:25.227Z,76.40
2022-10-24T04:27:52.245Z,76.70
2022-10-24T04:30:19.168Z,77.20
2022-10-24T04:32:47.062Z,77.80
2022-10-24T04:35:14.352Z,78.10
2022-10-24T04:37:41.551Z,78.60
2022-10-24T04:40:09.202Z,79.00
2022-10-24T04:42:36.286Z,79.20
2022-10-24T04:45:03.339Z,79.00
2022-10-24T04:47:30.296Z,79.20
2022-10-24T04:49:57.324Z,79.30
2022-10-24T04:52:24.261Z,79.80
2022-10-24T04:54:51.228Z,79.80
2022-10-24T04:57:18.397Z,79.80
2022-10-24T04:59:45.488Z,80.00
2022-10-24T05:02:12.516Z,80.50
2022-10-24T05:04:39.484Z,80.90
2022-10-24T05:07:06.424Z,81.50
2022-10-24T05:09:33.443Z,81.80
2022-10-24T05:12:00.521Z,82.90
2022-10-24T05:14:27.521Z,84.10
2022-10-24T05:16:54.441Z,84.90
2022-10-24T05:19:21.371Z,85.40
2022-10-24T05:21:48.371Z,85.70
2022-10-24T05:24:15.331Z,86.00
2022-10-24T05:26:42.302Z,86.30
2022-10-24T05:29:09.250Z,86.90
2022-10-24T05:31:36.438Z,87.10
2022-10-24T05:34:03.388Z,87.10
2022-10-24T05:36:30.418Z,87.40
2022-10-24T05:38:57.294Z,87.60
2022-10-24T05:41:24.192Z,88.00
2022-10-24T05:43:51.099Z,88.20
2022-10-24T05:46:18.070Z,88.40
2022-10-24T05:48:44.970Z,88.70
2022-10-24T05:51:11.972Z,88.90
2022-10-24T05:53:38.909Z,89.10
2022-10-24T05:56:06.515Z,89.50
2022-10-24T05:58:33.491Z,89.80
2022-10-24T06:01:01.207Z,89.90
2022-10-24T06:03:28.265Z,90.00
2022-10-24T06:05:55.268Z,90.20
2022-10-24T06:08:22.215Z,90.30
2022-10-24T06:10:50.941Z,90.50
2022-10-24T06:13:18.403Z,90.50
2022-10-24T06:15:45.535Z,90.60
2022-10-24T06:18:12.439Z,90.80
2022-10-24T06:20:39.639Z,91.00
2022-10-24T06:23:06.593Z,91.00
2022-10-24T06:25:33.558Z,91.10
2022-10-24T06:28:00.996Z,91.20
2022-10-24T06:30:28.106Z,91.40
2022-10-24T06:32:55.229Z,91.90
2022-10-24T06:35:22.157Z,91.70
2022-10-24T06:37:49.400Z,91.80
2022-10-24T06:40:17.749Z,92.00
2022-10-24T06:42:45.283Z,92.20
2022-10-24T06:45:12.863Z,92.40
2022-10-24T06:47:39.867Z,92.70
2022-10-24T06:50:07.422Z,92.90
2022-10-24T06:52:34.418Z,93.20
2022-10-24T06:55:01.369Z,93.20
2022-10-24T06:57:28.405Z,93.40
2022-10-24T06:59:55.471Z,93.60
2022-10-24T07:02:22.546Z,93.90
2022-10-24T07:04:49.637Z,94.00
2022-10-24T07:07:19.635Z,94.30
2022-10-24T07:09:52.832Z,94.40
2022-10-24T07:14:48.314Z,94.90
2022-10-24T07:17:16.539Z,95.00
2022-10-24T07:19:43.688Z,95.30
2022-10-24T07:22:11.014Z,95.50
2022-10-24T07:24:38.146Z,95.50
2022-10-24T07:27:05.207Z,95.60
2022-10-24T07:29:32.111Z,95.80
2022-10-24T07:31:59.622Z,96.10
2022-10-24T07:34:26.559Z,96.20
2022-10-24T07:36:53.521Z,96.40
2022-10-24T07:39:20.417Z,96.40
2022-10-24T07:41:47.489Z,96.40
2022-10-24T07:44:14.377Z,96.50
2022-10-24T07:46:42.542Z,96.70
2022-10-24T07:49:09.697Z,97.00
2022-10-24T07:51:36.712Z,97.10
2022-10-24T07:54:03.970Z,97.20
2022-10-24T07:56:30.930Z,97.20
2022-10-24T07:58:58.764Z,97.40
2022-10-24T08:01:26.478Z,97.50
2022-10-24T08:03:53.700Z,97.60
2022-10-24T08:06:30.754Z,97.70
2022-10-24T08:08:58.182Z,97.80
2022-10-24T08:11:27.167Z,97.90
2022-10-24T08:13:57.375Z,97.90
2022-10-24T08:16:24.907Z,97.90
2022-10-24T08:18:53.453Z,98.00
2022-10-24T08:21:21.799Z,98.00
2022-10-24T08:23:51.304Z,98.10
2022-10-24T08:26:24.891Z,98.20
2022-10-24T08:28:53.501Z,98.20
2022-10-24T08:31:22.895Z,98.20
2022-10-24T08:33:53.091Z,98.30
2022-10-24T08:36:31.268Z,98.40
2022-10-24T08:38:59.257Z,98.60
2022-10-24T08:41:26.214Z,98.80
2022-10-24T08:43:54.826Z,98.80
2022-10-24T08:46:28.797Z,99.00
2022-10-24T08:49:36.220Z,99.20
2022-10-24T08:52:18.260Z,99.30
2022-10-24T08:54:46.495Z,99.40
2022-10-24T08:57:27.815Z,99.30
2022-10-24T08:59:59.740Z,99.30
2022-10-24T09:02:32.252Z,99.30
2022-10-24T09:05:04.477Z,99.30
2022-10-24T09:07:31.482Z,99.30
2022-10-24T09:10:51.122Z,99.30
2022-10-24T09:13:18.400Z,99.30
2022-10-24T09:15:46.697Z,99.10
2022-10-24T09:18:27.032Z,98.90
2022-10-24T09:20:54.827Z,98.70
2022-10-24T09:23:24.098Z,98.90
2022-10-24T09:25:58.014Z,99.20
2022-10-24T09:28:25.164Z,99.10
2022-10-24T09:30:52.694Z,99.00
2022-10-24T09:33:40.875Z,99.10
2022-10-24T09:36:12.413Z,99.10
2022-10-24T09:38:41.358Z,98.80
2022-10-24T09:41:27.246Z,98.70
2022-10-24T09:43:59.443Z,98.60
2022-10-24T09:46:27.533Z,98.20
2022-10-24T09:48:54.419Z,98.50
2022-10-24T09:51:34.252Z,98.70
2022-10-24T09:54:19.541Z,98.90
2022-10-24T09:56:54.628Z,99.00
2022-10-24T09:59:33.232Z,99.10
2022-10-24T10:02:28.358Z,99.30
2022-10-24T10:05:18.981Z,99.30
2022-10-24T10:07:48.748Z,99.20
2022-10-24T10:10:18.714Z,99.40
2022-10-24T10:12:54.863Z,99.70
2022-10-24T10:15:27.768Z,99.90
2022-10-24T10:17:59.665Z,99.90
2022-10-24T10:20:39.372Z,99.90
2022-10-24T10:23:25.852Z,99.90
2022-10-24T10:26:21.628Z,99.80
2022-10-24T10:29:05.542Z,99.70
2022-10-24T10:31:49.125Z,99.80
2022-10-24T10:34:21.365Z,99.80
2022-10-24T10:37:01.012Z,99.70
2022-10-24T10:39:57.169Z,99.80
2022-10-24T10:43:06.711Z,99.90
2022-10-24T10:45:45.886Z,99.90
2022-10-24T10:48:25.082Z,99.90
2022-10-24T10:50:55.945Z,99.90
2022-10-24T10:53:52.557Z,99.90
2022-10-24T10:56:28.833Z,99.90
2022-10-24T10:58:58.515Z,99.80
2022-10-24T11:01:44.216Z,99.90
2022-10-24T11:04:35.926Z,99.70
2022-10-24T11:07:23.084Z,99.70
2022-10-24T11:09:54.015Z,99.90
2022-10-24T11:12:41.011Z,99.90
2022-10-24T11:15:28.759Z,99.80
2022-10-24T11:18:14.034Z,99.70
2022-10-24T11:20:46.979Z,99.70
2022-10-24T11:23:24.476Z,99.90
2022-10-24T11:26:20.463Z,99.70
2022-10-24T11:28:59.461Z,99.70
2022-10-24T11:31:32.384Z,99.70
2022-10-24T11:34:28.458Z,99.80
2022-10-24T11:37:20.837Z,99.90
2022-10-24T11:40:12.306Z,99.90
2022-10-24T11:43:13.124Z,99.90
2022-10-24T11:45:53.975Z,99.90
2022-10-24T11:48:22.000Z,99.90
2022-10-24T11:50:57.441Z,99.90
2022-10-24T11:53:33.259Z,99.90
2022-10-24T11:56:13.601Z,99.90
2022-10-24T11:58:52.019Z,99.90
2022-10-24T12:01:37.198Z,99.90
2022-10-24T12:04:22.692Z,99.90
2022-10-24T12:07:01.685Z,99.90
2022-10-24T12:09:34.340Z,99.90
2022-10-24T12:12:26.518Z,99.90
2022-10-24T12:15:26.481Z,99.90
2022-10-24T12:18:11.712Z,99.90
2022-10-24T12:20:40.398Z,99.90
2022-10-24T12:23:08.099Z,99.90
2022-10-24T12:25:37.563Z,99.90
2022-10-24T12:28:06.837Z,99.90
2022-10-24T12:30:36.078Z,99.90
2022-10-24T12:33:22.231Z,99.90
2022-10-24T12:35:52.931Z,99.90
2022-10-24T12:38:28.960Z,99.90
2022-10-24T12:40:58.702Z,99.90
2022-10-24T12:43:40.604Z,99.90
2022-10-24T12:46:25.595Z,99.90
2022-10-24T12:48:58.939Z,99.90
2022-10-24T12:51:41.276Z,99.90
2022-10-24T12:54:11.208Z,99.90
2022-10-24T12:57:01.091Z,99.90
2022-10-24T12:59:30.947Z,99.90
2022-10-24T13:02:16.503Z,99.90
2022-10-24T13:04:46.202Z,99.90
2022-10-24T13:07:37.707Z,99.90
2022-10-24T13:10:16.578Z,99.90
2022-10-24T13:16:10.054Z,99.90
2022-10-24T13:19:15.456Z,99.90
2022-10-24T13:21:50.269Z,99.90
2022-10-24T13:24:17.196Z,99.90
2022-10-24T13:26:47.021Z,99.90
2022-10-24T13:29:40.097Z,99.90
2022-10-24T13:32:06.967Z,99.90
2022-10-24T13:34:44.021Z,99.90
2022-10-24T13:37:11.009Z,99.90
2022-10-24T13:39:45.321Z,99.90
2022-10-24T13:42:40.052Z,99.90
2022-10-24T13:45:41.246Z,99.90
2022-10-24T13:48:17.912Z,99.90
2022-10-24T13:51:05.672Z,99.90
2022-10-24T13:53:56.513Z,99.90
2022-10-24T13:56:23.453Z,99.90
2022-10-24T13:58:50.419Z,99.90
2022-10-24T14:01:22.508Z,99.90
2022-10-24T14:03:50.727Z,99.90
2022-10-24T14:06:30.973Z,99.90
2022-10-24T14:09:07.179Z,99.90
2022-10-24T14:11:39.412Z,99.90
2022-10-24T14:14:33.861Z,99.90
2022-10-24T14:17:23.346Z,99.90
2022-10-24T14:20:22.548Z,99.90
2022-10-24T14:22:49.592Z,99.90
2022-10-24T14:25:27.887Z,99.90
2022-10-24T14:27:58.068Z,99.80
2022-10-24T14:30:33.410Z,99.90
2022-10-24T14:33:20.439Z,99.90
2022-10-24T14:35:51.268Z,99.80
2022-10-24T14:38:21.690Z,99.90
2022-10-24T14:41:00.933Z,99.90
2022-10-24T14:43:33.966Z,99.80
2022-10-24T14:46:13.447Z,99.60
2022-10-24T14:48:47.273Z,99.60
2022-10-24T14:51:39.078Z,99.60
2022-10-24T14:54:18.616Z,99.80
2022-10-24T14:56:46.484Z,99.80
2022-10-24T14:59:28.941Z,99.90
2022-10-24T15:02:33.574Z,99.90
2022-10-24T15:05:19.679Z,99.90
2022-10-24T15:08:21.728Z,99.90
2022-10-24T15:11:00.684Z,99.90
2022-10-24T15:13:32.668Z,99.80
2022-10-24T15:16:01.884Z,99.60
2022-10-24T15:18:36.768Z,99.70
2022-10-24T15:21:14.435Z,99.80
2022-10-24T15:23:53.542Z,99.70
2022-10-24T15:26:53.136Z,99.60
2022-10-24T15:29:23.505Z,99.40
2022-10-24T15:31:52.225Z,99.00
2022-10-24T15:34:22.195Z,98.90
2022-10-24T15:36:51.198Z,98.80
2022-10-24T15:39:24.670Z,98.80
2022-10-24T15:41:56.462Z,98.80
2022-10-24T15:44:26.979Z,98.70
2022-10-24T15:47:57.161Z,98.60
2022-10-24T15:50:27.454Z,98.50
2022-10-24T15:53:03.638Z,98.50
2022-10-24T15:55:33.704Z,98.40
2022-10-24T15:58:00.631Z,98.20
2022-10-24T16:00:27.774Z,98.00
2022-10-24T16:02:58.329Z,97.80
2022-10-24T16:05:29.963Z,97.70
2022-10-24T16:07:56.967Z,97.60
2022-10-24T16:10:23.955Z,97.60
2022-10-24T16:12:51.528Z,97.60
2022-10-24T16:15:26.831Z,97.60
2022-10-24T16:17:56.556Z,97.50
2022-10-24T16:20:27.168Z,97.50
2022-10-24T16:23:05.834Z,97.70
2022-10-24T16:25:39.088Z,97.60
2022-10-24T16:28:08.460Z,97.60
2022-10-24T16:30:41.284Z,97.60
2022-10-24T16:33:10.216Z,97.60
2022-10-24T16:35:40.748Z,97.60
2022-10-24T16:38:15.166Z,97.60
2022-10-24T16:40:52.713Z,97.50
2022-10-24T16:43:26.926Z,97.50
2022-10-24T16:46:04.202Z,97.30
2022-10-24T16:48:41.708Z,97.10
2022-10-24T16:51:32.734Z,97.10
2022-10-24T16:54:10.858Z,96.90
2022-10-24T16:56:48.677Z,96.80
2022-10-24T16:59:26.577Z,96.60
2022-10-24T17:02:04.710Z,96.60
2022-10-24T17:04:43.516Z,96.50
2022-10-24T17:07:19.100Z,96.40
2022-10-24T17:10:01.371Z,96.30
2022-10-24T17:12:48.079Z,96.20
2022-10-24T17:15:35.701Z,96.30
2022-10-24T17:18:13.447Z,96.30
2022-10-24T17:21:04.148Z,96.20
2022-10-24T17:23:40.939Z,96.20
2022-10-24T17:26:22.659Z,96.20
2022-10-24T17:28:59.732Z,96.10
2022-10-24T17:31:30.548Z,96.10
2022-10-24T17:34:07.618Z,96.10
2022-10-24T17:36:46.587Z,96.10
2022-10-24T17:39:35.847Z,96.10
2022-10-24T17:42:09.294Z,96.00
2022-10-24T17:44:41.582Z,96.00
2022-10-24T17:47:16.600Z,95.90
2022-10-24T17:49:55.576Z,96.50
2022-10-24T17:52:24.835Z,96.10
2022-10-24T17:54:56.999Z,96.10
2022-10-24T17:57:26.744Z,96.00
2022-10-24T18:00:01.952Z,96.00
2022-10-24T18:02:47.049Z,95.90
2022-10-24T18:05:23.279Z,96.00
2022-10-24T18:08:00.018Z,96.20
2022-10-24T18:10:31.669Z,95.80
2022-10-24T18:13:33.100Z,95.80
2022-10-24T18:16:16.428Z,95.80
2022-10-24T18:19:15.498Z,95.70
2022-10-24T18:21:42.477Z,95.90
2022-10-24T18:24:10.926Z,96.10
2022-10-24T18:26:37.863Z,96.20
2022-10-24T18:29:04.970Z,96.40
2022-10-24T18:31:32.425Z,96.40
2022-10-24T18:34:08.527Z,96.40
2022-10-24T18:36:54.218Z,96.50
2022-10-24T18:43:34.358Z,96.50
2022-10-24T18:46:22.809Z,96.50
2022-10-24T18:48:56.995Z,96.50
2022-10-24T18:51:34.183Z,96.30
2022-10-24T18:54:07.587Z,96.10
2022-10-24T18:56:34.855Z,96.00
2022-10-24T18:59:13.928Z,95.90
2022-10-24T19:02:12.438Z,95.80
2022-10-24T19:04:44.636Z,95.80
2022-10-24T19:07:12.544Z,95.80
2022-10-24T19:09:39.861Z,96.00
2022-10-24T19:12:10.779Z,95.90
2022-10-24T19:14:38.158Z,95.70
2022-10-24T19:17:05.944Z,95.60
2022-10-24T19:19:36.771Z,95.50
2022-10-24T19:22:03.773Z,95.60
2022-10-24T19:24:31.738Z,95.80
2022-10-24T19:26:59.192Z,95.80
2022-10-24T19:29:26.359Z,95.80
2022-10-24T19:31:53.559Z,95.60
2022-10-24T19:34:20.666Z,95.30
2022-10-24T19:36:47.698Z,95.40
2022-10-24T19:39:16.043Z,95.20
2022-10-24T19:41:43.041Z,95.00
2022-10-24T19:44:10.018Z,94.80
2022-10-24T19:46:37.104Z,94.60
2022-10-24T19:49:04.029Z,94.60
2022-10-24T19:51:31.102Z,94.50
2022-10-24T19:53:58.082Z,94.50
2022-10-24T19:56:26.883Z,94.50
2022-10-24T19:58:55.077Z,94.60
2022-10-24T20:01:25.134Z,94.90
2022-10-24T20:03:52.744Z,95.00
2022-10-24T20:06:19.919Z,95.00
2022-10-24T20:08:48.442Z,95.20
2022-10-24T20:11:16.348Z,95.20
2022-10-24T20:13:43.828Z,95.30
2022-10-24T20:16:13.427Z,95.30
2022-10-24T20:18:43.504Z,95.10
2022-10-24T20:21:13.103Z,94.90
2022-10-24T20:23:43.199Z,94.80
2022-10-24T20:26:13.436Z,94.80
2022-10-24T20:28:43.289Z,94.60
2022-10-24T20:31:39.396Z,94.70
2022-10-24T20:34:10.448Z,94.80
2022-10-24T20:36:39.466Z,94.90
2022-10-24T20:39:07.759Z,94.80
2022-10-24T20:41:35.668Z,94.90
2022-10-24T20:44:03.292Z,95.00
2022-10-24T20:46:39.621Z,95.10
2022-10-24T20:49:15.484Z,95.20
2022-10-24T20:51:44.474Z,95.40
2022-10-24T20:54:31.457Z,95.60
2022-10-24T20:57:14.116Z,95.60
2022-10-24T20:59:44.996Z,95.80
2022-10-24T21:02:18.822Z,95.80
2022-10-24T21:04:49.339Z,95.80
2022-10-24T21:07:16.771Z,95.70
2022-10-24T21:09:43.788Z,95.50
2022-10-24T21:12:10.807Z,95.30
2022-10-24T21:14:37.752Z,95.30
2022-10-24T21:17:04.755Z,95.30
2022-10-24T21:19:31.678Z,95.40
2022-10-24T21:21:58.609Z,95.50
2022-10-24T21:24:25.599Z,95.60
2022-10-24T21:26:53.800Z,95.70
2022-10-24T21:29:32.666Z,95.80
2022-10-24T21:32:00.082Z,95.80
2022-10-24T21:34:30.134Z,95.90
2022-10-24T21:37:00.247Z,95.90
2022-10-24T21:39:27.179Z,96.20
2022-10-24T21:41:54.129Z,95.90
2022-10-24T21:44:23.392Z,95.90
2022-10-24T21:46:52.012Z,95.90
2022-10-24T21:49:19.004Z,95.80
2022-10-24T21:51:46.945Z,95.80
2022-10-24T21:54:18.224Z,95.80
2022-10-24T21:56:45.428Z,95.80
2022-10-24T21:59:15.464Z,95.80
2022-10-24T22:01:43.581Z,96.00
2022-10-24T22:04:12.084Z,95.80
2022-10-24T22:06:39.655Z,95.70
2022-10-24T22:09:08.908Z,95.50
2022-10-24T22:11:37.012Z,95.30
2022-10-24T22:14:05.169Z,95.20
2022-10-24T22:16:32.749Z,95.10
2022-10-24T22:19:01.896Z,95.00
2022-10-24T22:21:33.754Z,94.90
2022-10-24T22:24:04.259Z,94.80
2022-10-24T22:26:31.849Z,95.00
2022-10-24T22:28:58.860Z,95.10
2022-10-24T22:31:28.141Z,95.30
2022-10-24T22:33:56.375Z,95.50
2022-10-24T22:36:40.289Z,95.70
2022-10-24T22:39:17.585Z,95.70
2022-10-24T22:41:46.161Z,95.60
2022-10-24T22:44:15.870Z,95.60
2022-10-24T22:47:00.880Z,95.50
2022-10-24T22:49:42.833Z,95.40
2022-10-24T22:52:13.274Z,95.50
2022-10-24T22:54:40.659Z,95.60
2022-10-24T22:57:08.033Z,95.70
2022-10-24T22:59:35.455Z,95.90
2022-10-24T23:02:14.066Z,95.50
2022-10-24T23:04:59.926Z,95.60
2022-10-24T23:07:32.738Z,95.70
2022-10-24T23:09:59.677Z,95.70
2022-10-24T23:12:27.167Z,95.70
2022-10-24T23:14:54.566Z,95.60
2022-10-24T23:17:27.348Z,95.50
2022-10-24T23:19:55.881Z,95.50
2022-10-24T23:22:24.219Z,95.60
2022-10-24T23:24:52.807Z,95.50
2022-10-24T23:27:39.926Z,95.50
2022-10-24T23:30:16.347Z,95.60
2022-10-24T23:32:43.860Z,95.40
2022-10-24T23:35:13.666Z,95.50
2022-10-24T23:37:42.710Z,95.40
2022-10-24T23:40:35.432Z,95.40
2022-10-24T23:43:06.763Z,95.30
2022-10-24T23:45:56.074Z,95.40
2022-10-24T23:48:41.414Z,95.20
2022-10-24T23:51:40.314Z,95.20
2022-10-24T23:54:12.882Z,95.20
2022-10-24T23:56:40.175Z,95.20
2022-10-24T23:59:07.087Z,95.20
